Time;durP1;ratioP1;P1;durP2;ratioP2;P2;SDS_P1;SDS_P2;PMS_P1;PMS_P2;Temp;Humidity;BMP_temperature;BMP_pressure;BME280_temperature;BME280_humidity;BME280_pressure;Samples;Min_cycle;Max_cycle;Signal;HPM_P1;HPM_P2
2023/05/13 00:01:12;;;;;;;1.63;1.52;;;12.00;99.90;;;;;;5062369;28;20582;-72
2023/05/13 00:03:39;;;;;;;1.70;1.60;;;11.90;99.90;;;;;;5060814;28;20304;-70
2023/05/13 00:06:06;;;;;;;1.23;1.23;;;11.90;99.90;;;;;;5059640;28;20243;-69
2023/05/13 00:08:33;;;;;;;1.20;1.20;;;11.90;99.90;;;;;;5062835;28;20236;-72
2023/05/13 00:11:02;;;;;;;1.38;1.27;;;11.90;99.90;;;;;;5059473;28;20421;-70
2023/05/13 00:13:29;;;;;;;1.10;1.10;;;11.90;99.90;;;;;;5062270;28;20230;-71
2023/05/13 00:15:55;;;;;;;1.50;1.40;;;11.90;99.90;;;;;;5060455;28;20623;-70
2023/05/13 00:18:22;;;;;;;1.60;1.50;;;11.90;99.90;;;;;;5061082;28;20195;-71
2023/05/13 00:20:49;;;;;;;1.40;1.40;;;11.90;99.90;;;;;;5058523;28;20198;-72
2023/05/13 00:23:16;;;;;;;1.33;1.33;;;11.90;99.90;;;;;;5059248;28;20222;-70
2023/05/13 00:25:44;;;;;;;1.40;1.40;;;11.80;99.90;;;;;;5060064;28;20681;-70
2023/05/13 00:28:13;;;;;;;1.40;1.40;;;11.80;99.90;;;;;;5062328;28;20289;-71
2023/05/13 00:30:41;;;;;;;1.48;1.40;;;11.80;99.90;;;;;;5058843;28;20214;-70
2023/05/13 00:33:08;;;;;;;1.70;1.60;;;11.80;99.90;;;;;;5060336;28;20225;-70
2023/05/13 00:35:35;;;;;;;1.70;1.60;;;11.70;99.90;;;;;;5055676;28;20285;-71
2023/05/13 00:38:02;;;;;;;1.73;1.63;;;11.70;99.90;;;;;;5059820;28;20210;-71
2023/05/13 00:40:29;;;;;;;1.45;1.35;;;11.70;99.90;;;;;;5058029;28;20198;-71
2023/05/13 00:42:56;;;;;;;1.45;1.40;;;11.70;99.90;;;;;;5059907;28;20226;-70
2023/05/13 00:45:24;;;;;;;1.45;1.42;;;11.70;99.90;;;;;;5063289;28;20293;-73
2023/05/13 00:47:51;;;;;;;1.67;1.58;;;11.70;99.90;;;;;;5060825;28;20727;-70
2023/05/13 00:50:18;;;;;;;1.85;1.75;;;11.80;99.90;;;;;;5060049;28;20688;-70
2023/05/13 00:52:47;;;;;;;1.60;1.50;;;11.80;99.90;;;;;;5057095;28;20673;-71
2023/05/13 00:55:14;;;;;;;1.83;1.73;;;11.90;99.90;;;;;;5060445;28;20302;-70
2023/05/13 00:57:41;;;;;;;1.55;1.45;;;11.90;99.90;;;;;;5060248;28;20386;-71
2023/05/13 01:00:10;;;;;;;1.60;1.50;;;11.90;99.90;;;;;;5060688;28;21014;-70
2023/05/13 01:02:44;;;;;;;1.40;1.30;;;11.90;99.90;;;;;;5061170;28;20408;-72
2023/05/13 01:05:20;;;;;;;1.58;1.58;;;11.90;99.90;;;;;;5061144;28;20197;-72
2023/05/13 01:07:56;;;;;;;1.80;1.70;;;11.80;99.90;;;;;;5055600;28;20226;-71
2023/05/13 01:10:29;;;;;;;1.80;1.70;;;11.80;99.90;;;;;;5060574;28;20210;-70
2023/05/13 01:13:09;;;;;;;1.70;1.60;;;11.80;99.90;;;;;;5061294;28;20279;-71
2023/05/13 01:15:44;;;;;;;1.55;1.45;;;11.80;99.90;;;;;;5061580;28;20233;-71
2023/05/13 01:18:16;;;;;;;1.80;1.70;;;11.70;99.90;;;;;;5059797;28;20238;-70
2023/05/13 01:20:45;;;;;;;1.70;1.60;;;11.70;99.90;;;;;;5061356;28;20198;-70
2023/05/13 01:23:14;;;;;;;1.70;1.60;;;11.70;99.90;;;;;;5058207;28;20254;-72
2023/05/13 01:25:41;;;;;;;1.67;1.48;;;11.70;99.90;;;;;;5063113;28;20267;-70
2023/05/13 01:28:08;;;;;;;1.60;1.50;;;11.80;99.90;;;;;;5064216;28;20244;-70
2023/05/13 01:30:36;;;;;;;1.90;1.80;;;11.80;99.90;;;;;;5062599;28;20230;-71
2023/05/13 01:33:03;;;;;;;1.83;1.73;;;11.80;99.90;;;;;;5064334;28;20249;-71
2023/05/13 01:35:31;;;;;;;1.92;1.83;;;11.90;99.90;;;;;;5063949;28;20275;-70
2023/05/13 01:38:00;;;;;;;2.20;2.10;;;11.80;99.90;;;;;;5064432;28;20298;-71
2023/05/13 01:40:29;;;;;;;2.20;2.10;;;11.90;99.90;;;;;;5063196;28;20557;-70
2023/05/13 01:42:56;;;;;;;2.03;1.92;;;11.80;99.90;;;;;;5067683;28;20222;-71
2023/05/13 01:45:23;;;;;;;2.70;1.90;;;11.70;99.90;;;;;;5061170;28;20565;-71
2023/05/13 01:47:50;;;;;;;1.88;1.77;;;11.70;99.90;;;;;;5061265;28;20226;-71
2023/05/13 01:50:17;;;;;;;2.05;1.95;;;11.70;99.90;;;;;;5067084;28;20748;-70
2023/05/13 01:52:44;;;;;;;1.90;1.80;;;11.70;99.90;;;;;;5064181;28;20277;-72
2023/05/13 01:55:12;;;;;;;1.73;1.63;;;11.80;99.90;;;;;;5063769;28;20234;-70
2023/05/13 01:57:40;;;;;;;2.15;2.05;;;11.80;99.90;;;;;;5064274;28;20241;-71
2023/05/13 02:00:08;;;;;;;1.65;1.55;;;11.80;99.90;;;;;;5059499;28;20238;-69
2023/05/13 02:02:35;;;;;;;1.65;1.60;;;11.70;99.90;;;;;;5061783;28;20580;-70
2023/05/13 02:05:02;;;;;;;2.38;1.55;;;11.70;99.90;;;;;;5061555;28;20199;-70
2023/05/13 02:07:29;;;;;;;1.65;1.55;;;11.70;99.90;;;;;;5062492;28;20611;-72
2023/05/13 02:09:58;;;;;;;1.80;1.70;;;11.70;99.90;;;;;;5062630;28;20259;-70
2023/05/13 02:12:26;;;;;;;1.45;1.45;;;11.70;99.90;;;;;;5063603;28;20252;-72
2023/05/13 02:14:54;;;;;;;1.95;1.85;;;11.70;99.90;;;;;;5063886;28;20309;-72
2023/05/13 02:17:21;;;;;;;1.70;1.60;;;11.70;99.90;;;;;;5065005;28;20573;-70
2023/05/13 02:19:48;;;;;;;1.83;1.73;;;11.70;99.90;;;;;;5061398;28;20206;-70
2023/05/13 02:22:15;;;;;;;1.80;1.70;;;11.60;99.90;;;;;;5066657;28;20206;-72
2023/05/13 02:24:42;;;;;;;2.50;1.77;;;11.50;99.90;;;;;;5068018;28;20218;-71
2023/05/13 02:27:11;;;;;;;1.90;1.80;;;11.50;99.90;;;;;;5066068;28;20277;-70
2023/05/13 02:29:38;;;;;;;2.10;2.00;;;11.50;99.90;;;;;;5063020;28;20259;-71
2023/05/13 02:32:07;;;;;;;2.10;2.00;;;11.50;99.90;;;;;;5061240;28;20229;-71
2023/05/13 02:34:34;;;;;;;1.77;1.67;;;11.50;99.90;;;;;;5063029;28;20298;-69
2023/05/13 02:37:02;;;;;;;1.90;1.80;;;11.50;99.90;;;;;;5061946;28;20301;-70
2023/05/13 02:39:29;;;;;;;2.28;1.83;;;11.60;99.90;;;;;;5062136;28;20198;-70
2023/05/13 02:41:56;;;;;;;1.70;1.60;;;11.50;99.90;;;;;;5059701;28;20743;-71
2023/05/13 02:44:23;;;;;;;2.10;1.85;;;11.40;99.90;;;;;;5058849;28;20280;-70
2023/05/13 02:46:50;;;;;;;2.05;1.90;;;11.40;99.90;;;;;;5061891;28;20226;-71
2023/05/13 02:49:18;;;;;;;1.40;1.40;;;11.40;99.90;;;;;;5061673;28;20264;-70
2023/05/13 02:51:46;;;;;;;2.10;2.00;;;11.40;99.90;;;;;;5062288;28;20198;-72
2023/05/13 02:54:13;;;;;;;1.80;1.70;;;11.40;99.90;;;;;;5062137;28;20243;-71
2023/05/13 02:56:41;;;;;;;1.95;1.85;;;11.40;99.90;;;;;;5062602;28;20872;-73
2023/05/13 02:59:08;;;;;;;1.38;1.38;;;11.30;99.90;;;;;;5064202;28;20224;-69
2023/05/13 03:01:34;;;;;;;1.63;1.52;;;11.30;99.90;;;;;;5065934;28;20349;-72
2023/05/13 03:04:01;;;;;;;1.90;1.80;;;11.10;99.90;;;;;;5062938;28;20222;-70
2023/05/13 03:06:30;;;;;;;1.80;1.70;;;11.10;99.90;;;;;;5060166;28;20237;-71
2023/05/13 03:08:57;;;;;;;2.00;1.90;;;11.10;99.90;;;;;;5061064;28;20479;-71
2023/05/13 03:11:25;;;;;;;1.52;1.52;;;11.10;99.90;;;;;;5064288;28;20447;-74
2023/05/13 03:13:52;;;;;;;2.30;1.60;;;11.20;99.90;;;;;;5062658;28;20226;-72
2023/05/13 03:16:19;;;;;;;1.90;1.80;;;11.20;99.90;;;;;;5061415;28;20705;-71
2023/05/13 03:18:46;;;;;;;1.60;1.60;;;11.30;99.90;;;;;;5063387;28;20226;-74
2023/05/13 03:21:13;;;;;;;1.33;1.33;;;11.30;99.90;;;;;;5063010;28;20380;-72
2023/05/13 03:23:41;;;;;;;1.50;1.50;;;11.30;99.90;;;;;;5062849;28;20219;-71
2023/05/13 03:26:08;;;;;;;1.35;1.33;;;11.40;99.90;;;;;;5061324;28;20355;-71
2023/05/13 03:28:35;;;;;;;1.58;1.50;;;11.40;99.90;;;;;;5061320;28;20248;-71
2023/05/13 03:31:02;;;;;;;1.50;1.50;;;11.40;99.90;;;;;;5063534;28;20570;-71
2023/05/13 03:33:29;;;;;;;1.90;1.80;;;11.40;99.90;;;;;;5064720;28;20724;-74
2023/05/13 03:35:56;;;;;;;1.55;1.45;;;11.30;99.90;;;;;;5061532;28;20210;-70
2023/05/13 03:38:23;;;;;;;1.58;1.50;;;11.30;99.90;;;;;;5060755;28;20740;-71
2023/05/13 03:40:51;;;;;;;1.60;1.50;;;11.30;99.90;;;;;;5059729;28;20583;-70
2023/05/13 03:43:18;;;;;;;1.83;1.73;;;11.30;99.90;;;;;;5061856;28;20567;-71
2023/05/13 03:45:47;;;;;;;1.92;1.83;;;11.30;99.90;;;;;;5059470;28;20203;-73
2023/05/13 03:48:14;;;;;;;1.75;1.65;;;11.30;99.90;;;;;;5059050;28;20203;-72
2023/05/13 03:50:41;;;;;;;2.00;1.73;;;11.30;99.90;;;;;;5061314;28;20205;-72
2023/05/13 03:53:09;;;;;;;1.73;1.63;;;11.30;99.90;;;;;;5062258;28;20285;-71
2023/05/13 03:55:36;;;;;;;1.80;1.70;;;11.30;99.90;;;;;;5062996;28;20737;-72
2023/05/13 03:58:12;;;;;;;1.77;1.67;;;11.30;99.90;;;;;;5061224;28;20249;-70
2023/05/13 04:00:39;;;;;;;2.00;1.90;;;11.30;99.90;;;;;;5060247;28;20209;-70
2023/05/13 04:03:06;;;;;;;2.40;1.80;;;11.30;99.90;;;;;;5062138;28;20226;-71
2023/05/13 04:05:33;;;;;;;1.90;1.80;;;11.40;99.90;;;;;;5061310;28;20572;-74
2023/05/13 04:08:00;;;;;;;1.95;1.85;;;11.40;99.90;;;;;;5060160;28;20244;-71
2023/05/13 04:10:27;;;;;;;2.03;1.70;;;11.40;99.90;;;;;;5059356;28;20202;-70
2023/05/13 04:12:54;;;;;;;2.10;2.00;;;11.40;99.90;;;;;;5061794;28;20782;-72
2023/05/13 04:15:22;;;;;;;2.00;1.90;;;11.40;99.90;;;;;;5062180;28;20198;-72
2023/05/13 04:17:49;;;;;;;2.08;1.98;;;11.40;99.90;;;;;;5059073;28;20248;-71
2023/05/13 04:20:16;;;;;;;2.20;2.03;;;11.40;99.90;;;;;;5061597;28;20216;-70
2023/05/13 04:22:43;;;;;;;2.35;2.25;;;11.40;99.90;;;;;;5060530;28;20670;-71
2023/05/13 04:25:11;;;;;;;2.30;2.20;;;11.40;99.90;;;;;;5064045;28;20260;-71
2023/05/13 04:27:37;;;;;;;2.55;2.40;;;11.40;99.90;;;;;;5057850;28;20285;-73
2023/05/13 04:30:06;;;;;;;2.65;2.45;;;11.40;99.90;;;;;;5063752;28;20198;-70
2023/05/13 04:32:34;;;;;;;2.28;2.17;;;11.40;99.90;;;;;;5062518;28;20654;-71
2023/05/13 04:35:01;;;;;;;2.10;2.00;;;11.40;99.90;;;;;;5060432;28;20280;-72
2023/05/13 04:37:28;;;;;;;2.10;2.00;;;11.50;99.90;;;;;;5062186;28;20222;-71
2023/05/13 04:39:55;;;;;;;2.50;2.30;;;11.50;99.90;;;;;;5062856;28;20206;-70
2023/05/13 04:42:22;;;;;;;2.40;2.30;;;11.60;99.90;;;;;;5062015;28;20202;-72
2023/05/13 04:44:49;;;;;;;2.33;2.22;;;11.60;99.90;;;;;;5063240;28;20530;-70
2023/05/13 04:47:16;;;;;;;2.10;2.00;;;11.70;99.90;;;;;;5061186;28;20543;-72
2023/05/13 04:49:44;;;;;;;2.33;2.22;;;11.80;99.90;;;;;;5063589;28;20190;-70
2023/05/13 04:52:12;;;;;;;2.20;2.10;;;11.80;99.90;;;;;;5062921;28;20207;-70
2023/05/13 04:54:39;;;;;;;2.95;2.65;;;11.90;99.90;;;;;;5061260;28;20244;-70
2023/05/13 04:57:06;;;;;;;2.50;2.38;;;11.90;99.90;;;;;;5062879;28;20202;-72
2023/05/13 04:59:34;;;;;;;2.60;2.40;;;11.90;99.90;;;;;;5060703;28;20286;-71
2023/05/13 05:02:01;;;;;;;2.80;2.60;;;11.80;99.90;;;;;;5061681;28;20236;-71
2023/05/13 05:04:28;;;;;;;2.67;2.47;;;11.80;99.90;;;;;;5061143;28;20278;-70
2023/05/13 05:06:56;;;;;;;7.53;2.53;;;11.90;99.90;;;;;;5057874;28;20244;-70
2023/05/13 05:09:23;;;;;;;3.15;2.95;;;12.10;99.90;;;;;;5060043;28;20885;-70
2023/05/13 05:11:50;;;;;;;3.03;2.83;;;12.40;99.90;;;;;;5061717;28;20742;-71
2023/05/13 05:14:17;;;;;;;3.30;3.05;;;12.60;99.90;;;;;;5061088;28;20222;-74
2023/05/13 05:16:44;;;;;;;3.03;2.83;;;12.80;99.90;;;;;;5066058;28;20653;-73
2023/05/13 05:19:11;;;;;;;3.33;3.13;;;12.90;99.90;;;;;;5065947;28;20288;-72
2023/05/13 05:21:38;;;;;;;4.97;3.08;;;12.90;99.90;;;;;;5068190;28;20279;-73
2023/05/13 05:24:07;;;;;;;3.00;2.80;;;12.80;99.90;;;;;;5064911;28;20650;-72
2023/05/13 05:26:34;;;;;;;2.65;2.45;;;12.70;99.90;;;;;;5065807;28;20243;-72
2023/05/13 05:29:01;;;;;;;2.60;2.40;;;12.60;99.90;;;;;;5064442;28;20252;-73
2023/05/13 05:31:29;;;;;;;2.30;2.20;;;12.60;99.90;;;;;;5066922;28;20514;-73
2023/05/13 05:33:56;;;;;;;3.08;2.53;;;12.60;99.90;;;;;;5062282;28;20225;-73
2023/05/13 05:36:23;;;;;;;2.60;2.40;;;12.60;99.90;;;;;;5060572;28;20198;-74
2023/05/13 05:38:50;;;;;;;2.42;2.22;;;12.50;99.90;;;;;;5066580;28;20219;-72
2023/05/13 05:41:18;;;;;;;3.10;2.58;;;12.50;99.90;;;;;;5069706;28;20206;-72
2023/05/13 05:43:45;;;;;;;2.42;2.30;;;12.40;99.90;;;;;;5066792;28;20253;-72
2023/05/13 05:46:12;;;;;;;2.58;2.38;;;12.40;99.90;;;;;;5064047;28;20245;-73
2023/05/13 05:48:39;;;;;;;2.50;2.38;;;12.40;99.90;;;;;;5066942;28;20256;-73
2023/05/13 05:51:06;;;;;;;2.38;2.22;;;12.40;99.90;;;;;;5070786;28;20649;-74
2023/05/13 05:53:36;;;;;;;2.28;2.10;;;12.40;99.90;;;;;;5069772;28;20531;-72
2023/05/13 05:56:03;;;;;;;2.58;2.38;;;12.40;99.90;;;;;;5070995;28;20190;-72
2023/05/13 05:58:32;;;;;;;2.85;2.53;;;12.40;99.90;;;;;;5076295;28;20222;-72
2023/05/13 06:00:59;;;;;;;5.35;2.38;;;12.50;99.90;;;;;;5074658;28;20194;-73
2023/05/13 06:03:26;;;;;;;3.08;2.88;;;12.50;99.90;;;;;;5077931;28;20634;-73
2023/05/13 06:05:53;;;;;;;2.85;2.65;;;12.60;99.90;;;;;;5072996;28;20371;-73
2023/05/13 06:08:21;;;;;;;3.67;3.33;;;12.60;99.90;;;;;;5066681;28;20246;-72
2023/05/13 06:10:48;;;;;;;4.57;4.18;;;12.50;99.90;;;;;;5065219;28;20206;-73
2023/05/13 06:13:15;;;;;;;3.78;3.47;;;12.30;99.90;;;;;;5067472;28;20214;-74
2023/05/13 06:15:43;;;;;;;3.25;3.05;;;12.30;99.90;;;;;;5071517;28;20206;-73
2023/05/13 06:18:10;;;;;;;2.70;2.53;;;12.40;99.90;;;;;;5064944;28;20223;-74
2023/05/13 06:20:37;;;;;;;2.60;2.50;;;12.40;99.90;;;;;;5067052;28;20417;-73
2023/05/13 06:23:04;;;;;;;2.45;2.35;;;12.60;99.90;;;;;;5070445;28;20227;-74
2023/05/13 06:25:31;;;;;;;2.97;2.78;;;12.70;99.90;;;;;;5069562;28;20238;-72
2023/05/13 06:27:58;;;;;;;2.80;2.65;;;12.70;99.90;;;;;;5064300;28;20198;-73
2023/05/13 06:30:25;;;;;;;2.90;2.70;;;12.80;99.90;;;;;;5066941;28;20296;-72
2023/05/13 06:32:54;;;;;;;3.50;3.30;;;12.70;99.90;;;;;;5068688;28;20246;-72
2023/05/13 06:35:21;;;;;;;3.63;3.33;;;12.70;99.90;;;;;;5067837;28;20202;-73
2023/05/13 06:37:48;;;;;;;3.83;3.55;;;12.70;99.90;;;;;;5066154;28;20679;-71
2023/05/13 06:40:15;;;;;;;3.95;3.53;;;12.70;99.90;;;;;;5066902;28;20210;-71
2023/05/13 06:42:42;;;;;;;3.50;3.30;;;12.70;99.90;;;;;;5068740;28;20530;-73
2023/05/13 06:45:10;;;;;;;3.97;3.70;;;12.70;99.90;;;;;;5067051;28;20226;-72
2023/05/13 06:47:37;;;;;;;4.20;3.90;;;12.70;99.90;;;;;;5066248;28;20227;-72
2023/05/13 06:50:06;;;;;;;3.60;3.30;;;12.70;99.90;;;;;;5064571;28;20225;-73
2023/05/13 06:52:33;;;;;;;4.05;3.75;;;12.70;99.90;;;;;;5065949;28;20202;-75
2023/05/13 06:55:01;;;;;;;3.20;3.00;;;12.80;99.90;;;;;;5069758;28;20742;-72
2023/05/13 06:57:28;;;;;;;3.83;3.53;;;12.90;99.90;;;;;;5066763;28;20289;-72
2023/05/13 06:59:55;;;;;;;3.53;3.33;;;13.00;99.90;;;;;;5063183;28;20215;-73
2023/05/13 07:02:22;;;;;;;4.25;3.85;;;13.10;99.90;;;;;;5067382;28;20194;-74
2023/05/13 07:04:49;;;;;;;3.08;2.88;;;13.30;99.90;;;;;;5067974;28;20720;-72
2023/05/13 07:07:17;;;;;;;2.95;2.75;;;13.50;99.90;;;;;;5068393;28;20218;-73
2023/05/13 07:09:44;;;;;;;4.10;3.80;;;13.60;99.90;;;;;;5064620;28;20663;-75
2023/05/13 07:12:11;;;;;;;3.88;3.55;;;13.70;99.90;;;;;;5070940;28;20720;-73
2023/05/13 07:14:38;;;;;;;3.25;3.03;;;13.60;99.90;;;;;;5068650;28;20225;-73
2023/05/13 07:17:05;;;;;;;2.88;2.67;;;13.60;99.90;;;;;;5068819;28;20217;-74
2023/05/13 07:19:32;;;;;;;2.88;2.67;;;13.60;99.90;;;;;;5070743;28;20241;-74
2023/05/13 07:21:59;;;;;;;3.60;3.40;;;13.70;99.90;;;;;;5071950;28;20225;-74
2023/05/13 07:24:27;;;;;;;3.15;2.90;;;13.70;99.90;;;;;;5070738;28;20217;-73
2023/05/13 07:26:54;;;;;;;3.10;2.95;;;13.80;99.90;;;;;;5071898;28;20226;-74
2023/05/13 07:29:21;;;;;;;2.55;2.45;;;14.00;99.90;;;;;;5070980;28;20206;-75
2023/05/13 07:31:49;;;;;;;3.58;3.15;;;14.20;99.90;;;;;;5068046;28;20194;-74
2023/05/13 07:34:16;;;;;;;3.25;2.95;;;14.40;99.90;;;;;;5067423;28;20414;-73
2023/05/13 07:36:43;;;;;;;3.35;2.88;;;14.50;99.90;;;;;;5070625;28;20202;-73
2023/05/13 07:39:10;;;;;;;3.90;2.90;;;14.50;99.90;;;;;;5069902;28;20658;-75
2023/05/13 07:41:38;;;;;;;2.95;2.75;;;14.60;99.90;;;;;;5063739;28;20194;-72
2023/05/13 07:44:10;;;;;;;3.00;2.80;;;14.70;99.90;;;;;;5066028;28;20222;-72
2023/05/13 07:46:37;;;;;;;2.80;2.60;;;14.90;99.90;;;;;;5068404;28;20210;-75
2023/05/13 07:49:05;;;;;;;2.78;2.58;;;15.20;99.90;;;;;;5071644;28;20227;-73
2023/05/13 07:51:32;;;;;;;2.78;2.58;;;15.40;99.90;;;;;;5070449;28;20198;-73
2023/05/13 07:53:59;;;;;;;3.25;3.05;;;15.60;99.90;;;;;;5070929;28;20230;-73
2023/05/13 07:56:26;;;;;;;2.92;2.72;;;15.70;99.90;;;;;;5071927;28;20490;-73
2023/05/13 07:58:55;;;;;;;2.80;2.60;;;15.70;99.90;;;;;;5067552;28;20514;-73
2023/05/13 08:01:22;;;;;;;2.80;2.60;;;15.70;99.90;;;;;;5072405;28;20202;-73
2023/05/13 08:03:48;;;;;;;2.25;2.15;;;16.10;99.90;;;;;;5071250;28;20258;-73
2023/05/13 08:06:16;;;;;;;2.20;2.10;;;16.40;99.90;;;;;;5066745;28;20230;-74
2023/05/13 08:08:42;;;;;;;2.13;2.03;;;16.50;99.90;;;;;;5079920;28;20230;-74
2023/05/13 08:11:09;;;;;;;4.72;2.45;;;16.70;99.90;;;;;;5088258;28;20198;-75
2023/05/13 08:13:37;;;;;;;2.05;1.90;;;16.90;99.90;;;;;;5084393;28;20213;-75
2023/05/13 08:16:06;;;;;;;2.00;1.90;;;16.90;99.90;;;;;;5081208;28;20210;-75
2023/05/13 08:18:33;;;;;;;2.05;1.95;;;17.10;99.90;;;;;;5085864;28;20241;-76
2023/05/13 08:21:00;;;;;;;1.70;1.60;;;17.30;99.90;;;;;;5082760;28;20182;-74
2023/05/13 08:23:27;;;;;;;1.88;1.77;;;17.30;99.90;;;;;;5082572;28;20248;-75
2023/05/13 08:25:54;;;;;;;1.90;1.80;;;17.30;99.90;;;;;;5083226;28;20228;-74
2023/05/13 08:28:21;;;;;;;2.00;1.80;;;17.30;99.90;;;;;;5082290;28;20195;-78
2023/05/13 08:30:48;;;;;;;1.50;1.40;;;17.50;99.90;;;;;;5071230;28;20206;-74
2023/05/13 08:33:16;;;;;;;1.73;1.55;;;17.30;99.90;;;;;;5060763;28;20711;-73
2023/05/13 08:35:43;;;;;;;3.13;1.50;;;17.30;99.90;;;;;;5059313;28;20198;-73
2023/05/13 08:38:10;;;;;;;1.75;1.55;;;17.50;99.90;;;;;;5059235;28;20202;-71
2023/05/13 08:40:37;;;;;;;1.73;1.30;;;17.40;99.90;;;;;;5061279;28;20647;-73
2023/05/13 08:43:05;;;;;;;1.55;1.45;;;17.30;99.90;;;;;;5059234;28;20309;-73
2023/05/13 08:45:34;;;;;;;1.73;1.60;;;17.10;99.90;;;;;;5058522;28;20284;-74
2023/05/13 08:48:03;;;;;;;1.40;1.40;;;17.00;99.90;;;;;;5060696;28;20226;-74
2023/05/13 08:50:32;;;;;;;1.58;1.48;;;16.70;99.90;;;;;;5059958;28;20625;-74
2023/05/13 08:52:59;;;;;;;1.67;1.58;;;16.20;99.90;;;;;;5060946;28;20330;-73
2023/05/13 08:55:27;;;;;;;1.83;1.60;;;15.90;99.90;;;;;;5058594;28;20677;-73
2023/05/13 08:57:54;;;;;;;1.48;1.45;;;15.60;99.90;;;;;;5060147;28;20612;-75
2023/05/13 09:00:21;;;;;;;1.75;1.65;;;15.50;99.90;;;;;;5060929;28;20746;-74
2023/05/13 09:02:49;;;;;;;1.50;1.40;;;15.60;99.90;;;;;;5062950;28;20203;-73
2023/05/13 09:05:17;;;;;;;1.50;1.40;;;15.60;99.90;;;;;;5059339;28;20212;-74
2023/05/13 09:07:46;;;;;;;1.90;1.60;;;15.50;99.90;;;;;;5065512;28;20221;-74
2023/05/13 09:10:12;;;;;;;1.58;1.45;;;15.50;99.90;;;;;;5062514;28;20222;-76
2023/05/13 09:12:46;;;;;;;1.50;1.40;;;15.60;99.90;;;;;;5065466;28;20198;-74
2023/05/13 09:15:14;;;;;;;3.35;1.60;;;16.00;99.90;;;;;;5064609;28;20218;-75
2023/05/13 09:17:42;;;;;;;1.83;1.45;;;16.30;99.90;;;;;;5070132;28;20201;-77
2023/05/13 09:20:11;;;;;;;1.45;1.35;;;16.30;99.90;;;;;;5068472;28;20218;-73
2023/05/13 09:22:42;;;;;;;1.75;1.30;;;16.20;99.90;;;;;;5067348;28;20205;-73
2023/05/13 09:25:13;;;;;;;3.08;1.65;;;16.00;99.90;;;;;;5063820;28;20253;-73
2023/05/13 09:27:42;;;;;;;2.78;1.50;;;16.00;99.90;;;;;;5060316;28;20299;-74
2023/05/13 09:30:10;;;;;;;1.38;1.30;;;15.90;99.90;;;;;;5066068;28;20253;-73
2023/05/13 09:32:37;;;;;;;1.67;1.58;;;15.90;99.90;;;;;;5064306;28;20206;-73
2023/05/13 09:35:15;;;;;;;1.85;1.75;;;15.90;99.90;;;;;;5066831;28;20194;-74
2023/05/13 09:37:44;;;;;;;1.60;1.48;;;16.00;99.90;;;;;;5063499;28;20206;-73
2023/05/13 09:40:13;;;;;;;2.10;1.90;;;16.20;99.90;;;;;;5067497;28;20210;-73
2023/05/13 09:42:42;;;;;;;1.95;1.52;;;16.50;99.90;;;;;;5068448;28;20211;-73
2023/05/13 09:45:10;;;;;;;1.63;1.52;;;16.40;99.90;;;;;;5073360;28;20226;-73
2023/05/13 09:47:38;;;;;;;1.52;1.42;;;16.40;99.90;;;;;;5074598;28;20198;-74
2023/05/13 09:50:06;;;;;;;2.60;1.80;;;16.40;99.90;;;;;;5071327;28;20233;-73
2023/05/13 09:52:35;;;;;;;2.65;1.95;;;16.30;99.90;;;;;;5072030;28;20194;-74
2023/05/13 09:55:04;;;;;;;1.77;1.60;;;16.30;99.90;;;;;;5065464;28;20202;-72
2023/05/13 09:57:32;;;;;;;1.75;1.65;;;16.40;99.90;;;;;;5065528;28;20213;-72
2023/05/13 10:00:00;;;;;;;1.77;1.67;;;16.40;99.90;;;;;;5068001;28;20297;-70
2023/05/13 10:02:28;;;;;;;1.90;1.80;;;16.70;99.90;;;;;;5067206;28;20198;-73
2023/05/13 10:04:55;;;;;;;1.75;1.65;;;17.00;99.90;;;;;;5074342;28;20218;-74
2023/05/13 10:07:24;;;;;;;1.77;1.67;;;17.30;99.90;;;;;;5066173;28;20194;-75
2023/05/13 10:09:55;;;;;;;1.50;1.40;;;17.80;99.90;;;;;;5074242;28;20201;-75
2023/05/13 10:12:25;;;;;;;3.92;1.50;;;18.00;99.90;;;;;;5074862;28;20206;-75
2023/05/13 10:14:55;;;;;;;3.28;1.17;;;18.50;99.90;;;;;;5074520;28;20236;-74
2023/05/13 10:17:23;;;;;;;1.20;1.20;;;18.40;99.90;;;;;;5076797;28;20229;-75
2023/05/13 10:19:51;;;;;;;1.20;1.05;;;18.30;99.90;;;;;;5065601;28;20226;-73
2023/05/13 10:22:26;;;;;;;1.30;1.20;;;18.00;99.90;;;;;;5066590;28;20942;-73
2023/05/13 10:24:55;;;;;;;1.33;1.23;;;17.90;99.90;;;;;;5067456;28;20290;-73
2023/05/13 10:27:22;;;;;;;1.05;1.05;;;18.00;99.90;;;;;;5069111;28;20206;-73
2023/05/13 10:29:54;;;;;;;1.23;1.17;;;18.20;99.90;;;;;;5068882;28;20195;-74
2023/05/13 10:32:22;;;;;;;1.15;1.13;;;18.40;99.90;;;;;;5071131;28;20202;-75
2023/05/13 10:34:51;;;;;;;1.10;1.00;;;18.20;99.90;;;;;;5068477;28;20241;-74
2023/05/13 10:37:54;;;;;;;2.03;1.20;;;18.20;99.90;;;;;;5066257;28;20240;-74
2023/05/13 10:40:51;;;;;;;1.35;1.25;;;18.40;99.90;;;;;;5066876;28;20259;-74
2023/05/13 10:43:19;;;;;;;2.15;1.00;;;18.90;99.90;;;;;;5066126;28;20219;-74
2023/05/13 10:45:49;;;;;;;0.73;0.73;;;18.90;99.90;;;;;;5071330;28;20202;-74
2023/05/13 10:48:16;;;;;;;4.88;0.90;;;19.20;99.90;;;;;;5074009;28;20214;-74
2023/05/13 10:50:54;;;;;;;1.17;0.88;;;19.10;99.90;;;;;;5070483;28;20216;-74
2023/05/13 10:53:24;;;;;;;0.80;0.80;;;19.20;99.90;;;;;;5069400;28;20277;-74
2023/05/13 10:55:56;;;;;;;0.70;0.70;;;19.20;99.90;;;;;;5068719;28;20575;-74
2023/05/13 10:58:29;;;;;;;0.80;0.80;;;19.50;99.90;;;;;;5074161;28;20215;-74
2023/05/13 11:01:13;;;;;;;0.80;0.80;;;19.60;99.90;;;;;;5068161;28;20236;-73
2023/05/13 11:03:41;;;;;;;1.10;0.90;;;19.60;99.90;;;;;;5066429;28;20228;-74
2023/05/13 11:06:15;;;;;;;0.88;0.73;;;19.70;99.90;;;;;;5067522;28;20248;-75
2023/05/13 11:08:44;;;;;;;0.80;0.80;;;19.90;99.90;;;;;;5069727;28;20225;-74
2023/05/13 11:11:30;;;;;;;1.23;0.95;;;19.80;99.90;;;;;;5065084;28;20226;-72
2023/05/13 11:14:07;;;;;;;2.28;0.73;;;20.00;99.90;;;;;;5065077;28;20364;-74
2023/05/13 11:16:36;;;;;;;0.98;0.70;;;20.10;99.90;;;;;;5068338;28;20201;-74
2023/05/13 11:19:08;;;;;;;0.73;0.73;;;19.90;99.90;;;;;;5068274;28;20195;-73
2023/05/13 11:21:38;;;;;;;0.88;0.80;;;19.80;99.90;;;;;;5064318;28;20252;-74
2023/05/13 11:24:06;;;;;;;1.08;0.80;;;19.70;99.90;;;;;;5066883;28;20218;-74
2023/05/13 11:26:47;;;;;;;0.73;0.73;;;19.50;99.90;;;;;;5069067;28;20849;-74
2023/05/13 11:29:15;;;;;;;0.82;0.82;;;19.40;99.90;;;;;;5066733;28;20229;-75
2023/05/13 11:31:46;;;;;;;0.68;0.65;;;19.00;99.90;;;;;;5071099;28;20198;-74
2023/05/13 11:34:14;;;;;;;1.00;0.90;;;18.50;99.90;;;;;;5067877;28;20334;-73
2023/05/13 11:36:44;;;;;;;0.88;0.80;;;18.20;99.90;;;;;;5067648;28;20209;-71
2023/05/13 11:39:13;;;;;;;1.85;0.70;;;18.10;99.90;;;;;;5067949;28;20206;-75
2023/05/13 11:41:41;;;;;;;0.60;0.60;;;18.20;99.90;;;;;;5067398;28;20194;-74
2023/05/13 11:44:09;;;;;;;1.05;0.70;;;18.30;99.90;;;;;;5063453;28;20227;-73
2023/05/13 11:46:36;;;;;;;0.70;0.70;;;18.40;99.90;;;;;;5066038;28;20282;-74
2023/05/13 11:49:05;;;;;;;1.67;0.82;;;18.40;99.90;;;;;;5065229;28;20225;-73
2023/05/13 11:51:34;;;;;;;0.57;0.57;;;18.60;99.90;;;;;;5066445;28;20198;-73
2023/05/13 11:54:02;;;;;;;0.90;0.90;;;18.70;99.90;;;;;;5066134;28;20826;-74
2023/05/13 11:56:29;;;;;;;1.33;0.85;;;18.70;99.90;;;;;;5063560;28;20233;-74
2023/05/13 11:59:12;;;;;;;0.70;0.70;;;18.80;99.90;;;;;;5066145;28;20263;-71
2023/05/13 12:01:39;;;;;;;0.80;0.80;;;19.10;99.90;;;;;;5066580;28;20221;-74
2023/05/13 12:04:07;;;;;;;1.17;1.08;;;19.30;99.90;;;;;;5068527;28;20221;-74
2023/05/13 12:06:35;;;;;;;0.70;0.70;;;19.50;99.90;;;;;;5064293;28;20254;-73
2023/05/13 12:09:06;;;;;;;1.10;0.70;;;19.30;99.90;;;;;;5066102;28;20198;-74
2023/05/13 12:11:33;;;;;;;0.80;0.80;;;18.90;99.90;;;;;;5065879;28;20194;-75
2023/05/13 12:14:01;;;;;;;0.70;0.70;;;18.60;99.90;;;;;;5067009;28;20217;-72
2023/05/13 12:16:28;;;;;;;0.80;0.80;;;18.30;99.90;;;;;;5061146;28;20260;-74
2023/05/13 12:18:59;;;;;;;0.60;0.60;;;18.20;99.90;;;;;;5064240;28;20233;-73
2023/05/13 12:21:31;;;;;;;0.80;0.80;;;18.70;99.90;;;;;;5065703;28;20331;-73
2023/05/13 12:23:58;;;;;;;0.95;0.90;;;19.00;99.90;;;;;;5061102;28;20218;-73
2023/05/13 12:26:25;;;;;;;0.80;0.80;;;19.10;99.90;;;;;;5065460;28;20210;-73
2023/05/13 12:28:58;;;;;;;0.70;0.65;;;19.20;99.90;;;;;;5063262;28;20275;-73
2023/05/13 12:31:25;;;;;;;0.70;0.70;;;19.20;99.90;;;;;;5065421;28;20205;-74
2023/05/13 12:33:51;;;;;;;0.80;0.80;;;19.40;99.90;;;;;;5064014;28;20728;-73
2023/05/13 12:36:20;;;;;;;1.23;0.70;;;19.70;99.90;;;;;;5064890;28;20206;-73
2023/05/13 12:38:59;;;;;;;0.73;0.73;;;20.10;99.90;;;;;;5061845;28;20202;-73
2023/05/13 12:41:28;;;;;;;0.63;0.63;;;20.70;99.90;;;;;;5064390;28;20225;-73
2023/05/13 12:44:00;;;;;;;2.35;0.70;;;20.90;99.90;;;;;;5062495;28;20250;-74
2023/05/13 12:46:27;;;;;;;0.65;0.65;;;20.90;99.90;;;;;;5062181;28;20210;-73
2023/05/13 12:48:58;;;;;;;0.70;0.70;;;21.20;99.90;;;;;;5060179;28;21053;-75
2023/05/13 12:51:26;;;;;;;0.60;0.60;;;20.90;99.90;;;;;;5057171;28;20206;-73
2023/05/13 12:53:54;;;;;;;0.70;0.70;;;20.50;99.90;;;;;;5055975;28;20313;-73